北京 の空港の天気 - METARとTAF

北京首都国際空港 ( ZBAA / PEK ) - 中国 北京市
飛行場実況気象(Metar)
観測時間02/17 22:30 CST (02/17 14:30 UTC)
風向・風速西北西 3m/s
視程10km以上
天気現象
なし
気温3℃
湿度17%
気圧1026hPa
METARZBAA 171430Z 29003MPS 260V340 CAVOK 03/M20 Q1026 NOSIG
過去の天気等 Google飛行場航空写真 Wunderground天気予報

過去48時間のMETAR

飛行場予報(TAF)
発表時間: 2/17 17:30 CST (2/17 09:30 UTC)
予報対象時間: 17日20時 CST ~ 18日20時 CST
風向・風速南東 4m/s
視程6000m
なし
TAF ZBAA 170930Z 1712/1812 13004MPS 6000 NSC TX03/1807Z TNM07/22Z